Hauptseite
METAR-TAF:

METAR-TAF

Flughäfen :

Southampton International Airport

Southampton, England

Breite: 50-54N, Länge: 001-24W, Höhe: 9 m

Beobachtung

Neuester Wetterbericht von vor 34 Minuten, um 15:50 UTC
Wind 12 kt aus Süd/Südwest, variierte zwischen Süd und West/Südwest
Temperatur 24°C
Luftfeuchtigkeit 44%
Luftdruck 1013 hPa
Sichtweite 10 km oder mehr
Leicht bewölkt in der Höhe von 4800 ft

METAR: EGHI 161550Z 21012KT 170V240 9999 FEW048 24/11 Q1013

Zeit: 17:24 (16:24 UTC)

Prognose

Neuester Wetterbericht von vor 2 Stunden und 23 Minuten, um 14:01 UTC
Gültige Prognose vom 16 um 15 UTC bis 16 um 22 UTC
Wind 5 kt aus Südwest
Sichtweite 10 km oder mehr
Leicht bewölkt in der Höhe von 3500 ft

TAF: EGHI 161401Z 1615/1622 22005KT 9999 FEW035

Wetterbeobachtungen und Prognosen von mehr als 4000 Flughäfen (METAR und TAF Bericht).

Die verfügbaren Stationen werden durch gelbe und rote Markierungen auf der Karte dargestellt.

Führen Sie die Maus auf sie, um den Namen der Station zu sehen.

Darauf klicken, um die Beobachtung von Wetterbeobachtungen und Prognosen zu sehen.

Um die Karte zu ändern : klicken Sie auf den grünen Tasten mit einem schwarzen Kreuz Zum Vergrößern, auf den grünen Button mit einem Gedankenstrich zu verkleinern, oder auf die grünen Pfeile für benachbarte Karten.


METAR-TAF: